Terminal Aerodrome Forecast
Issued by NWS Twin Cities, MN

Home | Current Version | Previous Version | Graphics & Text | Print | Product List | Glossary On
Versions: 1 2 3 4 5 6 7 8 9 10 11 12 13 14 15 16 17 18 19 20 21 22 23 24 25 26 27
000
FTUS43 KMPX 231800 AAA
TAFEAU
TAF AMD
KEAU 231815Z 2318/2418 18006KT 5SM BR OVC006
     FM232030 21005KT P6SM BKN015
     FM240100 20003KT P6SM SKC
     FM240600 21003KT 4SM BR FEW250
      TEMPO 2408/2412 00000KT 1SM BR OVC010
     FM241500 18003KT 6SM BR SKC=

USA.gov is the U.S. government's official web portal to all federal, state and local government web resources and services.